createdAt,value
2018-10-17T00:00:48.552Z,99.90
2018-10-17T00:03:17.455Z,99.90
2018-10-17T00:05:46.069Z,99.90
2018-10-17T00:08:14.804Z,99.90
2018-10-17T00:10:43.774Z,99.90
2018-10-17T00:13:12.508Z,99.90
2018-10-17T00:15:41.340Z,99.90
2018-10-17T00:18:09.891Z,99.90
2018-10-17T00:20:38.826Z,99.90
2018-10-17T00:23:07.348Z,99.90
2018-10-17T00:25:36.243Z,99.90
2018-10-17T00:28:05.393Z,99.90
2018-10-17T00:30:33.977Z,99.90
2018-10-17T00:33:02.472Z,99.90
2018-10-17T00:35:31.090Z,99.90
2018-10-17T00:38:00.517Z,99.90
2018-10-17T00:40:29.252Z,99.90
2018-10-17T00:45:26.139Z,99.90
2018-10-17T00:47:54.762Z,99.90
2018-10-17T00:50:23.884Z,99.90
2018-10-17T00:52:52.369Z,99.90
2018-10-17T00:55:20.991Z,99.90
2018-10-17T00:57:49.417Z,99.90
2018-10-17T01:00:18.366Z,99.90
2018-10-17T01:02:48.811Z,99.90
2018-10-17T01:05:17.057Z,99.90
2018-10-17T01:07:45.298Z,99.90
2018-10-17T01:10:14.315Z,99.90
2018-10-17T01:12:42.653Z,99.90
2018-10-17T01:15:12.114Z,99.90
2018-10-17T01:17:40.534Z,99.90
2018-10-17T01:20:09.273Z,99.90
2018-10-17T01:22:37.695Z,99.90
2018-10-17T01:25:06.566Z,99.90
2018-10-17T01:27:34.927Z,99.90
2018-10-17T01:32:38.250Z,99.90
2018-10-17T01:35:07.571Z,99.90
2018-10-17T01:37:36.837Z,99.90
2018-10-17T01:40:06.186Z,99.90
2018-10-17T01:42:34.650Z,99.90
2018-10-17T01:45:03.243Z,99.90
2018-10-17T01:47:32.138Z,99.90
2018-10-17T01:50:00.852Z,99.90
2018-10-17T01:52:29.693Z,99.90
2018-10-17T01:54:58.348Z,99.90
2018-10-17T01:57:27.239Z,99.90
2018-10-17T01:59:55.618Z,99.90
2018-10-17T02:02:24.281Z,99.90
2018-10-17T02:04:53.098Z,99.90
2018-10-17T02:07:21.893Z,99.90
2018-10-17T02:09:50.566Z,99.90
2018-10-17T02:12:19.500Z,99.90
2018-10-17T02:14:48.055Z,99.90
2018-10-17T02:17:17.262Z,99.90
2018-10-17T02:19:45.734Z,99.90
2018-10-17T02:22:14.465Z,99.90
2018-10-17T02:24:43.281Z,99.90
2018-10-17T02:27:12.049Z,99.90
2018-10-17T02:29:40.830Z,99.90
2018-10-17T02:32:09.675Z,99.90
2018-10-17T02:34:44.408Z,99.90
2018-10-17T02:37:13.298Z,99.90
2018-10-17T02:39:42.027Z,99.90
2018-10-17T02:42:10.959Z,99.90
2018-10-17T02:44:39.447Z,99.90
2018-10-17T02:47:08.665Z,99.90
2018-10-17T02:49:37.721Z,99.90
2018-10-17T02:52:06.610Z,99.90
2018-10-17T02:54:35.346Z,99.90
2018-10-17T02:57:04.258Z,99.90
2018-10-17T02:59:33.795Z,99.90
2018-10-17T03:02:02.754Z,99.90
2018-10-17T03:04:31.594Z,99.90
2018-10-17T03:07:00.523Z,99.90
2018-10-17T03:09:29.130Z,99.90
2018-10-17T03:11:57.914Z,99.90
2018-10-17T03:14:26.514Z,99.90
2018-10-17T03:16:55.339Z,99.90
2018-10-17T03:19:24.034Z,99.90
2018-10-17T03:21:52.745Z,99.90
2018-10-17T03:24:21.418Z,99.90
2018-10-17T03:26:50.198Z,99.90
2018-10-17T03:29:19.096Z,99.90
2018-10-17T03:31:47.470Z,99.90
2018-10-17T03:34:16.543Z,99.90
2018-10-17T03:36:45.217Z,99.90
2018-10-17T03:39:13.855Z,99.90
2018-10-17T03:41:42.622Z,99.90
2018-10-17T03:44:11.386Z,99.90
2018-10-17T03:46:40.062Z,99.90
2018-10-17T03:49:08.885Z,99.90
2018-10-17T03:51:37.730Z,99.90
2018-10-17T03:54:06.295Z,99.90
2018-10-17T03:56:35.054Z,99.90
2018-10-17T03:59:03.964Z,99.90
2018-10-17T04:01:33.771Z,99.90
2018-10-17T04:04:02.603Z,99.90
2018-10-17T04:06:31.541Z,99.90
2018-10-17T04:08:59.650Z,99.90
2018-10-17T04:11:28.314Z,99.90
2018-10-17T04:13:56.693Z,99.90
2018-10-17T04:16:26.118Z,99.90
2018-10-17T04:18:54.506Z,99.90
2018-10-17T04:21:22.798Z,99.90
2018-10-17T04:23:51.504Z,99.90
2018-10-17T04:26:19.989Z,99.90
2018-10-17T04:28:48.749Z,99.90
2018-10-17T04:31:17.603Z,99.90
2018-10-17T04:33:45.947Z,99.90
2018-10-17T04:36:14.410Z,99.90
2018-10-17T04:38:43.181Z,99.90
2018-10-17T04:41:11.949Z,99.90
2018-10-17T04:43:40.626Z,99.90
2018-10-17T04:46:09.337Z,99.90
2018-10-17T04:48:38.441Z,99.90
2018-10-17T04:51:07.074Z,99.90
2018-10-17T04:53:35.738Z,99.90
2018-10-17T04:56:04.345Z,99.90
2018-10-17T04:58:33.341Z,99.90
2018-10-17T05:01:02.322Z,99.90
2018-10-17T05:03:31.211Z,99.90
2018-10-17T05:05:59.831Z,99.90
2018-10-17T05:08:28.746Z,99.90
2018-10-17T05:10:57.321Z,99.90
2018-10-17T05:13:25.986Z,99.90
2018-10-17T05:15:54.398Z,99.90
2018-10-17T05:18:23.418Z,99.90
2018-10-17T05:20:52.007Z,99.90
2018-10-17T05:23:20.907Z,99.90
2018-10-17T05:25:49.658Z,99.90
2018-10-17T05:28:18.351Z,99.90
2018-10-17T05:30:47.879Z,99.90
2018-10-17T05:33:16.423Z,99.90
2018-10-17T05:35:44.830Z,99.90
2018-10-17T05:38:13.489Z,99.90
2018-10-17T05:40:42.165Z,99.90
2018-10-17T05:43:11.084Z,99.90
2018-10-17T05:45:39.527Z,99.90
2018-10-17T05:48:08.350Z,99.90
2018-10-17T05:50:37.025Z,99.90
2018-10-17T05:53:05.872Z,99.90
2018-10-17T05:55:34.476Z,99.90
2018-10-17T05:58:04.110Z,99.90
2018-10-17T06:00:32.374Z,99.90
2018-10-17T06:03:00.802Z,99.90
2018-10-17T06:05:29.715Z,99.90
2018-10-17T06:07:58.221Z,99.90
2018-10-17T06:10:26.834Z,99.90
2018-10-17T06:12:55.448Z,99.90
2018-10-17T06:15:24.085Z,99.90
2018-10-17T06:17:53.523Z,99.90
2018-10-17T06:20:22.061Z,99.90
2018-10-17T06:22:51.164Z,99.90
2018-10-17T06:25:19.750Z,99.90
2018-10-17T06:27:48.350Z,99.90
2018-10-17T06:30:16.980Z,99.90
2018-10-17T06:32:45.606Z,99.90
2018-10-17T06:35:14.195Z,99.90
2018-10-17T06:37:42.969Z,99.90
2018-10-17T06:40:11.910Z,99.90
2018-10-17T06:42:40.826Z,99.90
2018-10-17T06:45:09.492Z,99.90
2018-10-17T06:47:37.909Z,99.90
2018-10-17T06:50:07.312Z,99.90
2018-10-17T06:52:35.999Z,99.90
2018-10-17T06:55:04.645Z,99.90
2018-10-17T06:57:32.959Z,99.90
2018-10-17T07:00:01.383Z,99.90
2018-10-17T07:02:30.082Z,99.90
2018-10-17T07:04:58.555Z,99.90
2018-10-17T07:07:27.857Z,99.90
2018-10-17T07:09:56.354Z,99.90
2018-10-17T07:12:25.282Z,99.90
2018-10-17T07:14:54.115Z,99.90
2018-10-17T07:17:22.873Z,99.90
2018-10-17T07:19:51.361Z,99.90
2018-10-17T07:22:20.006Z,99.90
2018-10-17T07:24:48.425Z,99.90
2018-10-17T07:27:17.169Z,99.90
2018-10-17T07:29:45.993Z,99.90
2018-10-17T07:32:14.747Z,99.90
2018-10-17T07:34:43.374Z,99.90
2018-10-17T07:37:12.431Z,99.90
2018-10-17T07:39:41.121Z,99.90
2018-10-17T07:42:09.792Z,99.90
2018-10-17T07:44:38.674Z,99.90
2018-10-17T07:47:07.534Z,99.90
2018-10-17T07:49:37.075Z,99.90
2018-10-17T07:52:06.275Z,99.90
2018-10-17T07:54:35.367Z,99.90
2018-10-17T07:57:05.357Z,99.90
2018-10-17T07:59:34.570Z,99.90
2018-10-17T08:02:03.758Z,99.90
2018-10-17T08:04:33.114Z,99.90
2018-10-17T08:07:03.091Z,99.90
2018-10-17T08:09:33.054Z,99.90
2018-10-17T08:12:02.605Z,99.90
2018-10-17T08:14:31.867Z,99.90
2018-10-17T08:17:00.979Z,99.90
2018-10-17T08:19:30.035Z,99.90
2018-10-17T08:21:59.096Z,99.90
2018-10-17T08:24:28.268Z,99.90
2018-10-17T08:26:57.311Z,99.90
2018-10-17T08:29:26.495Z,99.90
2018-10-17T08:31:55.626Z,99.90
2018-10-17T08:34:25.141Z,99.90
2018-10-17T08:36:54.682Z,99.90
2018-10-17T08:39:24.506Z,99.90
2018-10-17T08:41:54.567Z,99.90
2018-10-17T08:44:23.784Z,99.90
2018-10-17T08:46:52.891Z,99.90
2018-10-17T08:49:22.009Z,99.90
2018-10-17T08:51:51.283Z,99.90
2018-10-17T08:54:20.383Z,99.90
2018-10-17T08:56:49.510Z,99.90
2018-10-17T08:59:18.953Z,99.90
2018-10-17T09:01:48.504Z,99.90
2018-10-17T09:04:18.115Z,99.90
2018-10-17T09:06:47.970Z,99.90
2018-10-17T09:09:18.118Z,99.90
2018-10-17T09:11:47.284Z,99.90
2018-10-17T09:14:16.501Z,99.90
2018-10-17T09:16:45.654Z,99.90
2018-10-17T09:19:14.761Z,99.90
2018-10-17T09:21:44.391Z,99.90
2018-10-17T09:24:13.729Z,99.90
2018-10-17T09:26:43.227Z,99.90
2018-10-17T09:29:13.678Z,99.90
2018-10-17T09:31:43.745Z,99.90
2018-10-17T09:34:13.049Z,99.80
2018-10-17T09:36:42.270Z,99.90
2018-10-17T09:39:12.254Z,99.90
2018-10-17T09:41:41.845Z,97.00
2018-10-17T09:44:11.389Z,97.60
2018-10-17T09:46:41.255Z,96.30
2018-10-17T09:49:11.044Z,95.80
2018-10-17T09:51:40.735Z,95.70
2018-10-17T09:54:09.904Z,95.40
2018-10-17T09:56:38.987Z,94.60
2018-10-17T09:59:08.937Z,94.10
2018-10-17T10:01:43.772Z,93.90
2018-10-17T10:04:12.952Z,93.70
2018-10-17T10:06:41.180Z,93.30
2018-10-17T10:09:10.749Z,93.60
2018-10-17T10:11:40.155Z,95.00
2018-10-17T10:14:09.355Z,94.60
2018-10-17T10:16:38.782Z,94.10
2018-10-17T10:19:08.998Z,94.30
2018-10-17T10:21:39.099Z,93.80
2018-10-17T10:24:09.427Z,93.10
2018-10-17T10:26:38.636Z,91.40
2018-10-17T10:29:08.130Z,91.10
2018-10-17T10:31:37.486Z,90.00
2018-10-17T10:34:06.677Z,89.10
2018-10-17T10:36:36.042Z,86.90
2018-10-17T10:39:08.855Z,85.90
2018-10-17T10:41:39.288Z,84.80
2018-10-17T10:44:08.714Z,84.30
2018-10-17T10:46:38.267Z,82.90
2018-10-17T10:49:08.508Z,82.30
2018-10-17T10:51:38.824Z,83.20
2018-10-17T10:54:08.243Z,82.20
2018-10-17T10:56:37.299Z,82.20
2018-10-17T10:59:06.418Z,82.00
2018-10-17T11:01:35.588Z,81.90
2018-10-17T11:04:06.772Z,81.50
2018-10-17T11:06:36.536Z,84.10
2018-10-17T11:09:07.966Z,83.50
2018-10-17T11:11:38.316Z,84.50
2018-10-17T11:14:08.191Z,84.80
2018-10-17T11:16:38.679Z,84.40
2018-10-17T11:19:09.343Z,83.50
2018-10-17T11:21:38.850Z,84.80
2018-10-17T11:24:08.006Z,85.60
2018-10-17T11:26:37.137Z,83.70
2018-10-17T11:29:06.360Z,83.40
2018-10-17T11:31:35.673Z,84.70
2018-10-17T11:34:05.297Z,85.70
2018-10-17T11:36:35.366Z,85.50
2018-10-17T11:39:06.830Z,85.90
2018-10-17T11:41:35.926Z,83.70
2018-10-17T11:44:05.079Z,84.90
2018-10-17T11:46:34.352Z,85.30
2018-10-17T11:49:03.934Z,85.60
2018-10-17T11:51:33.398Z,85.00
2018-10-17T11:54:03.300Z,86.80
2018-10-17T11:56:33.248Z,85.70
2018-10-17T11:59:02.975Z,89.40
2018-10-17T12:01:32.154Z,90.10
2018-10-17T12:04:01.602Z,89.70
2018-10-17T12:06:30.542Z,87.80
2018-10-17T12:08:59.680Z,89.10
2018-10-17T12:11:28.872Z,91.30
2018-10-17T12:13:57.911Z,89.70
2018-10-17T12:16:27.317Z,90.40
2018-10-17T12:18:57.272Z,91.00
2018-10-17T12:21:26.726Z,91.40
2018-10-17T12:23:56.692Z,92.30
2018-10-17T12:26:26.203Z,92.90
2018-10-17T12:28:55.418Z,92.50
2018-10-17T12:31:25.014Z,92.20
2018-10-17T12:33:54.259Z,91.30
2018-10-17T12:36:23.456Z,91.80
2018-10-17T12:38:52.774Z,91.70
2018-10-17T12:41:22.228Z,92.00
2018-10-17T12:43:52.027Z,91.90
2018-10-17T12:46:22.218Z,92.00
2018-10-17T12:48:52.687Z,92.80
2018-10-17T12:51:21.058Z,94.10
2018-10-17T12:53:50.224Z,92.90
2018-10-17T12:56:19.312Z,93.90
2018-10-17T12:58:48.565Z,94.20
2018-10-17T13:01:16.877Z,95.20
2018-10-17T13:03:45.803Z,95.70
2018-10-17T13:06:14.954Z,96.80
2018-10-17T13:08:44.350Z,96.90
2018-10-17T13:11:13.734Z,97.30
2018-10-17T13:13:43.623Z,97.70
2018-10-17T13:16:14.210Z,97.40
2018-10-17T13:18:43.664Z,97.30
2018-10-17T13:21:13.102Z,97.70
2018-10-17T13:23:42.233Z,97.60
2018-10-17T13:26:11.512Z,97.90
2018-10-17T13:28:41.150Z,97.70
2018-10-17T13:31:10.305Z,98.00
2018-10-17T13:33:40.578Z,97.50
2018-10-17T13:36:09.960Z,97.80
2018-10-17T13:38:39.547Z,98.20
2018-10-17T13:41:09.560Z,98.30
2018-10-17T13:43:39.006Z,99.20
2018-10-17T13:46:08.155Z,98.30
2018-10-17T13:48:38.763Z,98.70
2018-10-17T13:51:07.963Z,99.20
2018-10-17T13:53:37.468Z,99.40
2018-10-17T13:56:07.643Z,99.40
2018-10-17T13:58:37.374Z,99.60
2018-10-17T14:01:06.869Z,99.90
2018-10-17T14:03:36.139Z,99.90
2018-10-17T14:06:05.946Z,99.90
2018-10-17T14:08:35.120Z,99.90
2018-10-17T14:11:04.413Z,99.90
2018-10-17T14:13:33.503Z,99.70
2018-10-17T14:16:03.235Z,99.60
2018-10-17T14:18:34.491Z,99.90
2018-10-17T14:21:04.311Z,99.90
2018-10-17T14:23:33.632Z,99.90
2018-10-17T14:26:02.732Z,99.90
2018-10-17T14:28:31.880Z,99.90
2018-10-17T14:31:00.910Z,99.90
2018-10-17T14:33:29.920Z,99.90
2018-10-17T14:35:59.166Z,99.90
2018-10-17T14:38:28.292Z,99.90
2018-10-17T14:40:57.419Z,99.90
2018-10-17T14:43:26.812Z,99.90
2018-10-17T14:45:56.225Z,99.90
2018-10-17T14:48:25.820Z,99.90
2018-10-17T14:50:55.508Z,99.90
2018-10-17T14:53:25.143Z,99.90
2018-10-17T14:55:54.839Z,99.90
2018-10-17T14:58:23.886Z,99.90
2018-10-17T15:00:52.147Z,99.90
2018-10-17T15:03:20.395Z,99.90
2018-10-17T15:05:49.774Z,99.90
2018-10-17T15:08:18.034Z,99.90
2018-10-17T15:10:46.266Z,99.90
2018-10-17T15:13:14.727Z,99.90
2018-10-17T15:15:45.664Z,99.90
2018-10-17T15:18:14.906Z,99.90
2018-10-17T15:20:43.877Z,99.90
2018-10-17T15:23:12.747Z,99.90
2018-10-17T15:25:41.317Z,99.90
2018-10-17T15:28:09.645Z,99.90
2018-10-17T15:30:37.972Z,99.90
2018-10-17T15:33:06.300Z,99.90
2018-10-17T15:35:34.578Z,99.90
2018-10-17T15:38:02.773Z,99.90
2018-10-17T15:40:31.011Z,99.90
2018-10-17T15:42:59.725Z,99.90
2018-10-17T15:45:28.006Z,99.90
2018-10-17T15:47:56.666Z,99.90
2018-10-17T15:50:25.109Z,99.90
2018-10-17T15:52:54.119Z,99.90
2018-10-17T15:55:22.885Z,99.90
2018-10-17T15:57:51.598Z,99.90
2018-10-17T16:00:20.315Z,99.90
2018-10-17T16:02:49.105Z,99.90
2018-10-17T16:05:17.980Z,99.90
2018-10-17T16:07:46.507Z,99.90
2018-10-17T16:10:15.368Z,99.90
2018-10-17T16:12:44.180Z,99.90
2018-10-17T16:15:13.114Z,99.90
2018-10-17T16:17:41.546Z,99.90
2018-10-17T16:20:11.938Z,99.90
2018-10-17T16:22:40.155Z,99.90
2018-10-17T16:25:09.049Z,99.90
2018-10-17T16:27:37.318Z,99.90
2018-10-17T16:30:07.616Z,99.90
2018-10-17T16:32:35.778Z,99.90
2018-10-17T16:35:04.090Z,99.90
2018-10-17T16:37:32.384Z,99.90
2018-10-17T16:40:00.902Z,99.90
2018-10-17T16:42:29.241Z,99.90
2018-10-17T16:44:57.853Z,99.90
2018-10-17T16:47:26.739Z,99.90
2018-10-17T16:49:55.824Z,99.90
2018-10-17T16:52:24.465Z,99.90
2018-10-17T16:54:53.343Z,99.90
2018-10-17T16:57:22.144Z,99.90
2018-10-17T16:59:50.756Z,99.90
2018-10-17T17:02:19.554Z,99.90
2018-10-17T17:04:48.195Z,99.90
2018-10-17T17:07:17.676Z,99.90
2018-10-17T17:09:46.170Z,99.90
2018-10-17T17:12:14.813Z,99.90
2018-10-17T17:14:43.559Z,99.90
2018-10-17T17:17:12.260Z,99.90
2018-10-17T17:19:41.090Z,99.90
2018-10-17T17:22:09.509Z,99.90
2018-10-17T17:24:38.420Z,99.90
2018-10-17T17:27:07.148Z,99.90
2018-10-17T17:29:35.782Z,99.90
2018-10-17T17:32:04.612Z,99.90
2018-10-17T17:34:33.338Z,99.90
2018-10-17T17:37:01.988Z,99.90
2018-10-17T17:39:30.741Z,99.90
2018-10-17T17:41:59.685Z,99.90
2018-10-17T17:44:28.247Z,99.90
2018-10-17T17:46:57.084Z,99.90
2018-10-17T17:49:25.914Z,99.90
2018-10-17T17:51:54.510Z,99.90
2018-10-17T17:54:23.057Z,99.90
2018-10-17T17:56:51.677Z,99.90
2018-10-17T17:59:20.493Z,99.90
2018-10-17T18:01:49.165Z,99.90
2018-10-17T18:04:17.920Z,99.90
2018-10-17T18:06:46.370Z,99.90
2018-10-17T18:09:15.092Z,99.90
2018-10-17T18:11:43.863Z,99.90
2018-10-17T18:14:12.671Z,99.90
2018-10-17T18:16:41.169Z,99.90
2018-10-17T18:19:11.006Z,99.90
2018-10-17T18:21:39.328Z,99.90
2018-10-17T18:24:07.782Z,99.90
2018-10-17T18:26:36.718Z,99.90
2018-10-17T18:29:05.283Z,99.90
2018-10-17T18:31:34.039Z,99.90
2018-10-17T18:34:02.763Z,99.90
2018-10-17T18:36:31.339Z,99.90
2018-10-17T18:39:00.208Z,99.90
2018-10-17T18:41:28.773Z,99.90
2018-10-17T18:43:57.478Z,99.90
2018-10-17T18:46:26.207Z,99.90
2018-10-17T18:48:55.454Z,99.90
2018-10-17T18:51:24.172Z,99.90
2018-10-17T18:53:52.707Z,99.90
2018-10-17T18:56:21.482Z,99.90
2018-10-17T18:58:50.371Z,99.90
2018-10-17T19:01:18.804Z,99.90
2018-10-17T19:03:47.475Z,99.90
2018-10-17T19:06:16.388Z,99.90
2018-10-17T19:08:44.804Z,99.90
2018-10-17T19:11:13.426Z,99.90
2018-10-17T19:13:42.126Z,99.90
2018-10-17T19:16:10.733Z,99.90
2018-10-17T19:18:39.391Z,99.90
2018-10-17T19:21:08.525Z,99.90
2018-10-17T19:23:37.079Z,99.90
2018-10-17T19:26:05.486Z,99.90
2018-10-17T19:28:34.226Z,99.90
2018-10-17T19:31:03.090Z,99.90
2018-10-17T19:33:31.741Z,99.90
2018-10-17T19:36:00.374Z,99.90
2018-10-17T19:38:29.270Z,99.90
2018-10-17T19:40:57.699Z,99.90
2018-10-17T19:43:26.716Z,99.90
2018-10-17T19:45:55.221Z,99.90
2018-10-17T19:48:24.102Z,99.90
2018-10-17T19:50:52.678Z,99.90
2018-10-17T19:53:21.449Z,99.90
2018-10-17T19:55:50.167Z,99.90
2018-10-17T19:58:18.765Z,99.90
2018-10-17T20:00:47.360Z,99.90
2018-10-17T20:03:16.564Z,99.90
2018-10-17T20:05:44.934Z,99.90
2018-10-17T20:08:13.646Z,99.90
2018-10-17T20:10:42.363Z,99.90
2018-10-17T20:13:11.067Z,99.90
2018-10-17T20:15:39.851Z,99.90
2018-10-17T20:18:08.368Z,99.90
2018-10-17T20:20:37.118Z,99.90
2018-10-17T20:23:06.554Z,99.90
2018-10-17T20:25:35.383Z,99.90
2018-10-17T20:28:03.934Z,99.90
2018-10-17T20:30:32.503Z,99.90
2018-10-17T20:33:01.424Z,99.90
2018-10-17T20:35:29.838Z,99.90
2018-10-17T20:37:58.451Z,99.90
2018-10-17T20:40:26.996Z,99.90
2018-10-17T20:42:55.932Z,99.90
2018-10-17T20:45:24.383Z,99.90
2018-10-17T20:47:52.962Z,99.90
2018-10-17T20:50:21.587Z,99.90
2018-10-17T20:52:50.242Z,99.90
2018-10-17T20:55:19.322Z,99.90
2018-10-17T20:57:47.786Z,99.90
2018-10-17T21:00:16.520Z,99.90
2018-10-17T21:02:45.529Z,99.90
2018-10-17T21:05:14.030Z,99.90
2018-10-17T21:07:42.704Z,99.90
2018-10-17T21:10:11.457Z,99.90
2018-10-17T21:12:40.128Z,99.90
2018-10-17T21:15:08.989Z,99.90
2018-10-17T21:17:37.990Z,99.90
2018-10-17T21:20:06.617Z,99.90
2018-10-17T21:22:35.329Z,99.90
2018-10-17T21:25:03.947Z,99.90
2018-10-17T21:27:32.761Z,99.90
2018-10-17T21:30:01.678Z,99.90
2018-10-17T21:32:30.789Z,99.90
2018-10-17T21:34:59.317Z,99.90
2018-10-17T21:37:28.183Z,99.90
2018-10-17T21:39:56.964Z,99.90
2018-10-17T21:42:25.725Z,99.90
2018-10-17T21:44:54.243Z,99.90
2018-10-17T21:47:23.034Z,99.90
2018-10-17T21:49:51.837Z,99.90
2018-10-17T21:52:20.678Z,99.90
2018-10-17T21:54:49.326Z,99.90
2018-10-17T21:57:18.291Z,99.90
2018-10-17T21:59:47.753Z,99.90
2018-10-17T22:02:16.456Z,99.90
2018-10-17T22:04:45.098Z,99.90
2018-10-17T22:07:13.749Z,99.90
2018-10-17T22:09:42.449Z,99.90
2018-10-17T22:12:10.874Z,99.90
2018-10-17T22:14:39.280Z,99.90
2018-10-17T22:17:08.133Z,99.90
2018-10-17T22:19:37.815Z,99.90
2018-10-17T22:22:06.398Z,99.90
2018-10-17T22:24:34.707Z,99.90
2018-10-17T22:27:03.407Z,99.90
2018-10-17T22:29:31.721Z,99.90
2018-10-17T22:32:00.193Z,99.90
2018-10-17T22:34:28.742Z,99.90
2018-10-17T22:36:57.681Z,99.90
2018-10-17T22:39:26.441Z,99.90
2018-10-17T22:41:55.231Z,99.90
2018-10-17T22:44:23.712Z,99.90
2018-10-17T22:46:53.149Z,99.90
2018-10-17T22:49:21.491Z,99.90
2018-10-17T22:51:50.182Z,99.90
2018-10-17T22:54:18.746Z,99.90
2018-10-17T22:56:47.820Z,99.90
2018-10-17T22:59:16.418Z,99.90
2018-10-17T23:01:45.279Z,99.90
2018-10-17T23:04:13.653Z,99.90
2018-10-17T23:06:42.175Z,99.90
2018-10-17T23:09:12.626Z,99.90
2018-10-17T23:11:41.570Z,99.90
2018-10-17T23:14:10.267Z,99.90
2018-10-17T23:16:38.654Z,99.90
2018-10-17T23:19:07.537Z,99.90
2018-10-17T23:21:35.747Z,99.90
2018-10-17T23:24:03.985Z,99.90
2018-10-17T23:26:32.459Z,99.90
2018-10-17T23:29:00.873Z,99.90
2018-10-17T23:31:29.493Z,99.90
2018-10-17T23:33:58.438Z,99.90
2018-10-17T23:36:27.417Z,99.90
2018-10-17T23:38:57.302Z,99.90
2018-10-17T23:41:25.734Z,99.90
2018-10-17T23:43:53.994Z,99.90
2018-10-17T23:46:22.673Z,99.90
2018-10-17T23:51:56.046Z,99.90
2018-10-17T23:54:24.344Z,99.90
2018-10-17T23:56:53.286Z,99.90
2018-10-17T23:59:21.610Z,99.90
